sensor_id;sensor_type;location;lat;lon;timestamp;pressure;altitude;pressure_sealevel;temperature;humidity
63006;BME280;53704;52.532;6.426;2023-04-28T00:02:00;101527.69;;;6.76;100.00
63006;BME280;53704;52.532;6.426;2023-04-28T00:04:26;101525.63;;;6.57;100.00
63006;BME280;53704;52.532;6.426;2023-04-28T00:06:51;101524.16;;;6.64;100.00
63006;BME280;53704;52.532;6.426;2023-04-28T00:09:17;101522.22;;;6.55;100.00
63006;BME280;53704;52.532;6.426;2023-04-28T00:11:45;101520.38;;;6.56;100.00
63006;BME280;53704;52.532;6.426;2023-04-28T00:14:11;101515.63;;;6.59;100.00
63006;BME280;53704;52.532;6.426;2023-04-28T00:16:37;101506.88;;;6.57;100.00
63006;BME280;53704;52.532;6.426;2023-04-28T00:19:02;101507.38;;;6.51;100.00
63006;BME280;53704;52.532;6.426;2023-04-28T00:21:27;101499.69;;;6.46;100.00
63006;BME280;53704;52.532;6.426;2023-04-28T00:23:53;101487.91;;;6.60;100.00
63006;BME280;53704;52.532;6.426;2023-04-28T00:26:18;101487.81;;;6.50;100.00
63006;BME280;53704;52.532;6.426;2023-04-28T00:28:45;101485.72;;;6.43;100.00
63006;BME280;53704;52.532;6.426;2023-04-28T00:31:12;101484.53;;;6.47;100.00
63006;BME280;53704;52.532;6.426;2023-04-28T00:33:41;101477.69;;;6.54;100.00
63006;BME280;53704;52.532;6.426;2023-04-28T00:36:07;101469.31;;;6.47;100.00
63006;BME280;53704;52.532;6.426;2023-04-28T00:38:34;101458.97;;;6.43;100.00
63006;BME280;53704;52.532;6.426;2023-04-28T00:40:59;101448.41;;;6.41;100.00
63006;BME280;53704;52.532;6.426;2023-04-28T00:43:27;101455.31;;;6.32;100.00
63006;BME280;53704;52.532;6.426;2023-04-28T00:45:53;101449.00;;;6.45;100.00
63006;BME280;53704;52.532;6.426;2023-04-28T00:48:18;101456.53;;;6.40;100.00
63006;BME280;53704;52.532;6.426;2023-04-28T00:50:45;101439.41;;;6.42;100.00
63006;BME280;53704;52.532;6.426;2023-04-28T00:53:12;101444.88;;;6.41;100.00
63006;BME280;53704;52.532;6.426;2023-04-28T00:55:38;101440.50;;;6.40;100.00
63006;BME280;53704;52.532;6.426;2023-04-28T00:58:05;101450.84;;;6.33;100.00
63006;BME280;53704;52.532;6.426;2023-04-28T01:00:30;101428.72;;;6.42;100.00
63006;BME280;53704;52.532;6.426;2023-04-28T01:02:56;101422.84;;;6.37;100.00
63006;BME280;53704;52.532;6.426;2023-04-28T01:05:24;101432.47;;;6.28;100.00
63006;BME280;53704;52.532;6.426;2023-04-28T01:07:50;101428.84;;;6.29;100.00
63006;BME280;53704;52.532;6.426;2023-04-28T01:10:15;101417.50;;;6.37;100.00
63006;BME280;53704;52.532;6.426;2023-04-28T01:12:41;101419.94;;;6.18;100.00
63006;BME280;53704;52.532;6.426;2023-04-28T01:15:09;101425.06;;;6.21;100.00
63006;BME280;53704;52.532;6.426;2023-04-28T01:17:36;101414.97;;;6.13;100.00
63006;BME280;53704;52.532;6.426;2023-04-28T01:20:02;101407.31;;;6.20;100.00
63006;BME280;53704;52.532;6.426;2023-04-28T01:22:28;101413.66;;;6.19;100.00
63006;BME280;53704;52.532;6.426;2023-04-28T01:24:54;101402.06;;;6.07;100.00
63006;BME280;53704;52.532;6.426;2023-04-28T01:27:19;101408.06;;;6.10;100.00
63006;BME280;53704;52.532;6.426;2023-04-28T01:29:45;101410.97;;;6.07;100.00
63006;BME280;53704;52.532;6.426;2023-04-28T01:32:10;101405.34;;;5.99;100.00
63006;BME280;53704;52.532;6.426;2023-04-28T01:34:36;101403.44;;;6.01;100.00
63006;BME280;53704;52.532;6.426;2023-04-28T01:37:04;101399.75;;;6.02;100.00
63006;BME280;53704;52.532;6.426;2023-04-28T01:39:29;101398.63;;;5.93;100.00
63006;BME280;53704;52.532;6.426;2023-04-28T01:41:57;101400.69;;;5.90;100.00
63006;BME280;53704;52.532;6.426;2023-04-28T01:44:22;101396.22;;;5.90;100.00
63006;BME280;53704;52.532;6.426;2023-04-28T01:46:48;101401.66;;;5.89;100.00
63006;BME280;53704;52.532;6.426;2023-04-28T01:49:13;101396.19;;;5.68;100.00
63006;BME280;53704;52.532;6.426;2023-04-28T01:51:38;101388.88;;;5.70;100.00
63006;BME280;53704;52.532;6.426;2023-04-28T01:54:04;101380.78;;;5.83;100.00
63006;BME280;53704;52.532;6.426;2023-04-28T01:56:30;101375.78;;;5.78;100.00
63006;BME280;53704;52.532;6.426;2023-04-28T01:58:59;101371.16;;;5.80;100.00
63006;BME280;53704;52.532;6.426;2023-04-28T02:01:24;101367.28;;;5.73;100.00
63006;BME280;53704;52.532;6.426;2023-04-28T02:03:50;101375.88;;;5.65;100.00
63006;BME280;53704;52.532;6.426;2023-04-28T02:06:15;101368.47;;;5.57;100.00
63006;BME280;53704;52.532;6.426;2023-04-28T02:08:40;101350.38;;;5.61;100.00
63006;BME280;53704;52.532;6.426;2023-04-28T02:11:06;101356.94;;;5.57;100.00
63006;BME280;53704;52.532;6.426;2023-04-28T02:13:31;101346.25;;;5.57;100.00
63006;BME280;53704;52.532;6.426;2023-04-28T02:15:59;101343.22;;;5.61;100.00
63006;BME280;53704;52.532;6.426;2023-04-28T02:18:25;101346.03;;;5.71;100.00
63006;BME280;53704;52.532;6.426;2023-04-28T02:20:51;101340.19;;;5.66;100.00
63006;BME280;53704;52.532;6.426;2023-04-28T02:23:16;101339.56;;;5.62;100.00
63006;BME280;53704;52.532;6.426;2023-04-28T02:25:42;101332.06;;;5.68;100.00
63006;BME280;53704;52.532;6.426;2023-04-28T02:28:07;101326.84;;;5.77;100.00
63006;BME280;53704;52.532;6.426;2023-04-28T02:30:33;101326.44;;;5.71;100.00
63006;BME280;53704;52.532;6.426;2023-04-28T02:32:58;101322.34;;;5.78;100.00
63006;BME280;53704;52.532;6.426;2023-04-28T02:35:23;101322.69;;;5.85;100.00
63006;BME280;53704;52.532;6.426;2023-04-28T02:37:49;101317.13;;;5.76;100.00
63006;BME280;53704;52.532;6.426;2023-04-28T02:40:15;101326.38;;;5.84;100.00
63006;BME280;53704;52.532;6.426;2023-04-28T02:42:40;101314.91;;;5.59;100.00
63006;BME280;53704;52.532;6.426;2023-04-28T02:45:06;101318.81;;;5.66;100.00
63006;BME280;53704;52.532;6.426;2023-04-28T02:47:32;101316.28;;;5.65;100.00
63006;BME280;53704;52.532;6.426;2023-04-28T02:49:57;101319.06;;;5.63;100.00
63006;BME280;53704;52.532;6.426;2023-04-28T02:52:23;101311.88;;;5.64;100.00
63006;BME280;53704;52.532;6.426;2023-04-28T02:54:48;101313.22;;;5.69;100.00
63006;BME280;53704;52.532;6.426;2023-04-28T02:57:18;101305.19;;;5.69;100.00
63006;BME280;53704;52.532;6.426;2023-04-28T02:59:44;101302.28;;;5.72;100.00
63006;BME280;53704;52.532;6.426;2023-04-28T03:02:10;101297.47;;;5.77;100.00
63006;BME280;53704;52.532;6.426;2023-04-28T03:04:36;101298.41;;;5.65;100.00
63006;BME280;53704;52.532;6.426;2023-04-28T03:07:02;101306.41;;;5.54;100.00
63006;BME280;53704;52.532;6.426;2023-04-28T03:09:28;101292.84;;;5.68;100.00
63006;BME280;53704;52.532;6.426;2023-04-28T03:11:53;101290.88;;;5.59;100.00
63006;BME280;53704;52.532;6.426;2023-04-28T03:14:19;101290.63;;;5.39;100.00
63006;BME280;53704;52.532;6.426;2023-04-28T03:16:44;101286.38;;;5.48;100.00
63006;BME280;53704;52.532;6.426;2023-04-28T03:19:10;101289.63;;;5.40;100.00
63006;BME280;53704;52.532;6.426;2023-04-28T03:21:35;101283.44;;;5.29;100.00
63006;BME280;53704;52.532;6.426;2023-04-28T03:24:01;101287.94;;;5.39;100.00
63006;BME280;53704;52.532;6.426;2023-04-28T03:26:27;101282.25;;;5.44;100.00
63006;BME280;53704;52.532;6.426;2023-04-28T03:28:52;101283.56;;;5.38;100.00
63006;BME280;53704;52.532;6.426;2023-04-28T03:31:17;101277.97;;;5.30;100.00
63006;BME280;53704;52.532;6.426;2023-04-28T03:33:43;101281.50;;;5.31;100.00
63006;BME280;53704;52.532;6.426;2023-04-28T03:36:12;101277.75;;;5.44;100.00
63006;BME280;53704;52.532;6.426;2023-04-28T03:38:37;101270.22;;;5.61;100.00
63006;BME280;53704;52.532;6.426;2023-04-28T03:41:03;101264.50;;;5.32;100.00
63006;BME280;53704;52.532;6.426;2023-04-28T03:43:28;101266.06;;;5.34;100.00
63006;BME280;53704;52.532;6.426;2023-04-28T03:45:53;101258.59;;;5.39;100.00
63006;BME280;53704;52.532;6.426;2023-04-28T03:48:19;101253.47;;;5.36;100.00
63006;BME280;53704;52.532;6.426;2023-04-28T03:50:45;101249.09;;;5.24;100.00
63006;BME280;53704;52.532;6.426;2023-04-28T03:53:11;101242.03;;;5.23;100.00
63006;BME280;53704;52.532;6.426;2023-04-28T03:55:37;101245.00;;;5.54;100.00
63006;BME280;53704;52.532;6.426;2023-04-28T03:58:02;101244.88;;;5.44;100.00
63006;BME280;53704;52.532;6.426;2023-04-28T04:00:28;101233.69;;;5.28;100.00
63006;BME280;53704;52.532;6.426;2023-04-28T04:02:53;101232.00;;;5.27;100.00
63006;BME280;53704;52.532;6.426;2023-04-28T04:05:18;101230.41;;;5.35;100.00
63006;BME280;53704;52.532;6.426;2023-04-28T04:07:44;101227.84;;;5.34;100.00
63006;BME280;53704;52.532;6.426;2023-04-28T04:10:09;101216.22;;;5.46;100.00
63006;BME280;53704;52.532;6.426;2023-04-28T04:12:35;101217.28;;;5.55;100.00
63006;BME280;53704;52.532;6.426;2023-04-28T04:15:00;101213.44;;;5.48;100.00
63006;BME280;53704;52.532;6.426;2023-04-28T04:17:26;101209.53;;;5.40;100.00
63006;BME280;53704;52.532;6.426;2023-04-28T04:19:51;101213.06;;;5.41;100.00
63006;BME280;53704;52.532;6.426;2023-04-28T04:22:17;101207.09;;;5.71;100.00
63006;BME280;53704;52.532;6.426;2023-04-28T04:24:42;101203.97;;;5.66;100.00
63006;BME280;53704;52.532;6.426;2023-04-28T04:27:08;101204.06;;;5.53;100.00
63006;BME280;53704;52.532;6.426;2023-04-28T04:29:33;101202.25;;;5.65;100.00
63006;BME280;53704;52.532;6.426;2023-04-28T04:31:59;101204.19;;;5.52;100.00
63006;BME280;53704;52.532;6.426;2023-04-28T04:34:24;101208.22;;;5.46;100.00
63006;BME280;53704;52.532;6.426;2023-04-28T04:36:50;101201.75;;;5.71;100.00
63006;BME280;53704;52.532;6.426;2023-04-28T04:39:15;101192.66;;;5.62;100.00
63006;BME280;53704;52.532;6.426;2023-04-28T04:41:41;101201.19;;;5.68;100.00
63006;BME280;53704;52.532;6.426;2023-04-28T04:44:06;101197.97;;;5.74;100.00
63006;BME280;53704;52.532;6.426;2023-04-28T04:46:32;101188.03;;;5.76;100.00
63006;BME280;53704;52.532;6.426;2023-04-28T04:48:57;101181.31;;;5.93;100.00
63006;BME280;53704;52.532;6.426;2023-04-28T04:51:23;101179.91;;;5.77;100.00
63006;BME280;53704;52.532;6.426;2023-04-28T04:53:48;101179.53;;;5.82;100.00
63006;BME280;53704;52.532;6.426;2023-04-28T04:56:14;101175.88;;;5.83;100.00
63006;BME280;53704;52.532;6.426;2023-04-28T04:58:41;101180.25;;;5.84;100.00
63006;BME280;53704;52.532;6.426;2023-04-28T05:01:08;101180.72;;;5.89;100.00
63006;BME280;53704;52.532;6.426;2023-04-28T05:03:33;101174.19;;;5.82;100.00
63006;BME280;53704;52.532;6.426;2023-04-28T05:05:59;101177.22;;;5.77;100.00
63006;BME280;53704;52.532;6.426;2023-04-28T05:08:25;101181.34;;;5.82;100.00
63006;BME280;53704;52.532;6.426;2023-04-28T05:10:51;101179.16;;;5.98;100.00
63006;BME280;53704;52.532;6.426;2023-04-28T05:13:16;101179.75;;;6.02;100.00
63006;BME280;53704;52.532;6.426;2023-04-28T05:15:42;101174.03;;;5.95;100.00
63006;BME280;53704;52.532;6.426;2023-04-28T05:18:07;101169.94;;;5.79;100.00
63006;BME280;53704;52.532;6.426;2023-04-28T05:20:35;101161.63;;;5.94;100.00
63006;BME280;53704;52.532;6.426;2023-04-28T05:23:00;101150.63;;;5.87;100.00
63006;BME280;53704;52.532;6.426;2023-04-28T05:25:27;101153.88;;;6.02;100.00
63006;BME280;53704;52.532;6.426;2023-04-28T05:27:52;101149.47;;;6.12;100.00
63006;BME280;53704;52.532;6.426;2023-04-28T05:30:18;101145.56;;;6.16;100.00
63006;BME280;53704;52.532;6.426;2023-04-28T05:32:43;101133.91;;;6.18;100.00
63006;BME280;53704;52.532;6.426;2023-04-28T05:35:09;101131.97;;;6.08;100.00
63006;BME280;53704;52.532;6.426;2023-04-28T05:37:34;101131.44;;;6.26;100.00
63006;BME280;53704;52.532;6.426;2023-04-28T05:40:02;101133.19;;;6.37;100.00
63006;BME280;53704;52.532;6.426;2023-04-28T05:42:28;101136.72;;;6.37;100.00
63006;BME280;53704;52.532;6.426;2023-04-28T05:44:53;101137.53;;;6.49;100.00
63006;BME280;53704;52.532;6.426;2023-04-28T05:47:18;101142.41;;;6.65;100.00
63006;BME280;53704;52.532;6.426;2023-04-28T05:49:44;101139.56;;;6.57;100.00
63006;BME280;53704;52.532;6.426;2023-04-28T05:52:09;101137.06;;;6.65;100.00
63006;BME280;53704;52.532;6.426;2023-04-28T05:54:35;101145.66;;;6.68;100.00
63006;BME280;53704;52.532;6.426;2023-04-28T05:57:00;101143.41;;;6.85;100.00
63006;BME280;53704;52.532;6.426;2023-04-28T05:59:28;101150.81;;;6.81;100.00
63006;BME280;53704;52.532;6.426;2023-04-28T06:01:54;101147.75;;;6.86;100.00
63006;BME280;53704;52.532;6.426;2023-04-28T06:04:20;101155.31;;;7.02;100.00
63006;BME280;53704;52.532;6.426;2023-04-28T06:06:45;101146.63;;;7.10;100.00
63006;BME280;53704;52.532;6.426;2023-04-28T06:09:12;101144.47;;;7.03;100.00
63006;BME280;53704;52.532;6.426;2023-04-28T06:11:37;101142.53;;;7.05;100.00
63006;BME280;53704;52.532;6.426;2023-04-28T06:14:03;101146.03;;;7.06;100.00
63006;BME280;53704;52.532;6.426;2023-04-28T06:16:28;101132.72;;;7.25;100.00
63006;BME280;53704;52.532;6.426;2023-04-28T06:18:54;101139.78;;;7.27;100.00
63006;BME280;53704;52.532;6.426;2023-04-28T06:21:19;101135.53;;;7.24;100.00
63006;BME280;53704;52.532;6.426;2023-04-28T06:23:45;101144.38;;;7.46;100.00
63006;BME280;53704;52.532;6.426;2023-04-28T06:26:11;101140.78;;;7.66;100.00
63006;BME280;53704;52.532;6.426;2023-04-28T06:28:36;101147.75;;;7.48;100.00
63006;BME280;53704;52.532;6.426;2023-04-28T06:31:02;101140.59;;;7.48;100.00
63006;BME280;53704;52.532;6.426;2023-04-28T06:33:27;101146.88;;;7.78;100.00
63006;BME280;53704;52.532;6.426;2023-04-28T06:35:53;101136.00;;;7.79;100.00
63006;BME280;53704;52.532;6.426;2023-04-28T06:38:18;101133.28;;;7.70;100.00
63006;BME280;53704;52.532;6.426;2023-04-28T06:40:44;101130.34;;;7.73;100.00
63006;BME280;53704;52.532;6.426;2023-04-28T06:43:12;101136.56;;;7.73;100.00
63006;BME280;53704;52.532;6.426;2023-04-28T06:45:37;101138.41;;;7.83;100.00
63006;BME280;53704;52.532;6.426;2023-04-28T06:48:04;101137.97;;;7.77;100.00
63006;BME280;53704;52.532;6.426;2023-04-28T06:50:29;101141.13;;;7.92;100.00
63006;BME280;53704;52.532;6.426;2023-04-28T06:52:54;101130.97;;;8.06;100.00
63006;BME280;53704;52.532;6.426;2023-04-28T06:55:20;101132.81;;;8.25;100.00
63006;BME280;53704;52.532;6.426;2023-04-28T06:57:45;101137.47;;;8.23;100.00
63006;BME280;53704;52.532;6.426;2023-04-28T07:00:11;101134.06;;;8.40;100.00
63006;BME280;53704;52.532;6.426;2023-04-28T07:02:37;101139.72;;;8.37;100.00
63006;BME280;53704;52.532;6.426;2023-04-28T07:05:03;101136.78;;;8.50;100.00
63006;BME280;53704;52.532;6.426;2023-04-28T07:07:29;101140.56;;;8.67;100.00
63006;BME280;53704;52.532;6.426;2023-04-28T07:09:55;101134.78;;;8.72;100.00
63006;BME280;53704;52.532;6.426;2023-04-28T07:12:20;101119.50;;;8.72;100.00
63006;BME280;53704;52.532;6.426;2023-04-28T07:14:46;101116.94;;;8.80;100.00
63006;BME280;53704;52.532;6.426;2023-04-28T07:17:11;101116.34;;;8.96;100.00
63006;BME280;53704;52.532;6.426;2023-04-28T07:19:37;101108.09;;;8.70;100.00
63006;BME280;53704;52.532;6.426;2023-04-28T07:22:02;101093.66;;;8.71;100.00
63006;BME280;53704;52.532;6.426;2023-04-28T07:24:28;101091.66;;;8.83;100.00
63006;BME280;53704;52.532;6.426;2023-04-28T07:26:54;101078.53;;;8.80;100.00
63006;BME280;53704;52.532;6.426;2023-04-28T07:29:21;101076.06;;;8.96;100.00
63006;BME280;53704;52.532;6.426;2023-04-28T07:31:46;101077.78;;;8.87;100.00
63006;BME280;53704;52.532;6.426;2023-04-28T07:34:14;101077.16;;;8.66;100.00
63006;BME280;53704;52.532;6.426;2023-04-28T07:36:40;101087.94;;;8.94;100.00
63006;BME280;53704;52.532;6.426;2023-04-28T07:39:06;101095.78;;;9.15;100.00
63006;BME280;53704;52.532;6.426;2023-04-28T07:41:36;101095.72;;;8.97;100.00
63006;BME280;53704;52.532;6.426;2023-04-28T07:44:05;101099.56;;;9.22;100.00
63006;BME280;53704;52.532;6.426;2023-04-28T07:46:33;101088.56;;;9.15;100.00
63006;BME280;53704;52.532;6.426;2023-04-28T07:48:58;101072.13;;;9.18;100.00
63006;BME280;53704;52.532;6.426;2023-04-28T07:51:24;101073.09;;;9.27;100.00
63006;BME280;53704;52.532;6.426;2023-04-28T07:53:49;101081.31;;;9.26;100.00
63006;BME280;53704;52.532;6.426;2023-04-28T07:56:15;101081.03;;;9.47;100.00
63006;BME280;53704;52.532;6.426;2023-04-28T07:58:40;101066.81;;;9.82;100.00
63006;BME280;53704;52.532;6.426;2023-04-28T08:01:06;101071.75;;;9.87;100.00
63006;BME280;53704;52.532;6.426;2023-04-28T08:03:32;101082.09;;;10.36;100.00
63006;BME280;53704;52.532;6.426;2023-04-28T08:05:57;101086.91;;;10.32;100.00
63006;BME280;53704;52.532;6.426;2023-04-28T08:08:23;101085.34;;;10.39;100.00
63006;BME280;53704;52.532;6.426;2023-04-28T08:10:48;101079.84;;;10.49;100.00
63006;BME280;53704;52.532;6.426;2023-04-28T08:13:15;101074.25;;;10.42;100.00
63006;BME280;53704;52.532;6.426;2023-04-28T08:15:41;101078.75;;;10.60;100.00
63006;BME280;53704;52.532;6.426;2023-04-28T08:18:06;101082.50;;;10.67;100.00
63006;BME280;53704;52.532;6.426;2023-04-28T08:20:31;101080.66;;;10.67;100.00
63006;BME280;53704;52.532;6.426;2023-04-28T08:23:00;101090.09;;;10.72;100.00
63006;BME280;53704;52.532;6.426;2023-04-28T08:25:25;101090.72;;;10.92;100.00
63006;BME280;53704;52.532;6.426;2023-04-28T08:27:51;101091.56;;;10.92;100.00
63006;BME280;53704;52.532;6.426;2023-04-28T08:30:17;101092.00;;;11.06;100.00
63006;BME280;53704;52.532;6.426;2023-04-28T08:32:42;101092.38;;;11.19;100.00
63006;BME280;53704;52.532;6.426;2023-04-28T08:35:08;101093.03;;;11.55;100.00
63006;BME280;53704;52.532;6.426;2023-04-28T08:37:33;101081.41;;;11.55;100.00
63006;BME280;53704;52.532;6.426;2023-04-28T08:40:00;101082.97;;;11.82;100.00
63006;BME280;53704;52.532;6.426;2023-04-28T08:42:36;101077.91;;;11.79;100.00
63006;BME280;53704;52.532;6.426;2023-04-28T08:45:03;101072.59;;;11.96;100.00
63006;BME280;53704;52.532;6.426;2023-04-28T08:47:37;101072.19;;;11.82;100.00
63006;BME280;53704;52.532;6.426;2023-04-28T08:50:05;101067.28;;;11.69;100.00
63006;BME280;53704;52.532;6.426;2023-04-28T08:52:31;101064.78;;;11.84;100.00
63006;BME280;53704;52.532;6.426;2023-04-28T08:55:05;101057.72;;;11.83;100.00
63006;BME280;53704;52.532;6.426;2023-04-28T08:57:38;101065.00;;;12.07;100.00
63006;BME280;53704;52.532;6.426;2023-04-28T09:00:06;101067.19;;;12.20;100.00
63006;BME280;53704;52.532;6.426;2023-04-28T09:02:32;101069.91;;;12.45;100.00
63006;BME280;53704;52.532;6.426;2023-04-28T09:05:00;101066.88;;;11.99;100.00
63006;BME280;53704;52.532;6.426;2023-04-28T09:07:26;101071.09;;;12.18;100.00
63006;BME280;53704;52.532;6.426;2023-04-28T09:10:15;101075.63;;;12.42;100.00
63006;BME280;53704;52.532;6.426;2023-04-28T09:12:41;101069.38;;;12.25;100.00
63006;BME280;53704;52.532;6.426;2023-04-28T09:15:10;101071.06;;;12.42;100.00
63006;BME280;53704;52.532;6.426;2023-04-28T09:17:50;101065.50;;;12.60;100.00
63006;BME280;53704;52.532;6.426;2023-04-28T09:20:26;101066.44;;;12.92;100.00
63006;BME280;53704;52.532;6.426;2023-04-28T09:22:53;101057.03;;;12.55;100.00
63006;BME280;53704;52.532;6.426;2023-04-28T09:25:19;101054.41;;;12.95;100.00
63006;BME280;53704;52.532;6.426;2023-04-28T09:27:47;101043.97;;;12.83;100.00
63006;BME280;53704;52.532;6.426;2023-04-28T09:30:12;101045.13;;;12.97;100.00
63006;BME280;53704;52.532;6.426;2023-04-28T09:32:38;101041.41;;;12.90;100.00
63006;BME280;53704;52.532;6.426;2023-04-28T09:35:03;101043.28;;;12.90;100.00
63006;BME280;53704;52.532;6.426;2023-04-28T09:37:30;101034.97;;;12.99;100.00
63006;BME280;53704;52.532;6.426;2023-04-28T09:39:57;101031.19;;;13.17;100.00
63006;BME280;53704;52.532;6.426;2023-04-28T09:45:01;101034.28;;;13.45;100.00
63006;BME280;53704;52.532;6.426;2023-04-28T09:47:28;101034.22;;;13.22;100.00
63006;BME280;53704;52.532;6.426;2023-04-28T09:49:57;101020.72;;;13.77;100.00
63006;BME280;53704;52.532;6.426;2023-04-28T09:52:25;101021.09;;;13.97;100.00
63006;BME280;53704;52.532;6.426;2023-04-28T09:54:52;101011.09;;;14.20;100.00
63006;BME280;53704;52.532;6.426;2023-04-28T09:57:18;101013.28;;;14.02;100.00
63006;BME280;53704;52.532;6.426;2023-04-28T09:59:51;101002.28;;;13.80;100.00
63006;BME280;53704;52.532;6.426;2023-04-28T10:02:18;101006.53;;;13.98;100.00
63006;BME280;53704;52.532;6.426;2023-04-28T10:04:48;100998.13;;;13.69;100.00
63006;BME280;53704;52.532;6.426;2023-04-28T10:07:14;100995.88;;;13.96;100.00
63006;BME280;53704;52.532;6.426;2023-04-28T10:09:46;100992.16;;;13.97;100.00
63006;BME280;53704;52.532;6.426;2023-04-28T10:12:18;100994.31;;;14.02;100.00
63006;BME280;53704;52.532;6.426;2023-04-28T10:14:44;100989.25;;;14.22;100.00
63006;BME280;53704;52.532;6.426;2023-04-28T10:17:12;100987.22;;;14.54;100.00
63006;BME280;53704;52.532;6.426;2023-04-28T10:19:40;100985.13;;;14.26;100.00
63006;BME280;53704;52.532;6.426;2023-04-28T10:27:37;100976.13;;;14.48;100.00
63006;BME280;53704;52.532;6.426;2023-04-28T10:30:17;100978.50;;;14.43;100.00
63006;BME280;53704;52.532;6.426;2023-04-28T10:32:44;100969.94;;;14.40;100.00
63006;BME280;53704;52.532;6.426;2023-04-28T10:38:09;100971.22;;;14.29;100.00
63006;BME280;53704;52.532;6.426;2023-04-28T10:40:46;100966.50;;;14.61;100.00
63006;BME280;53704;52.532;6.426;2023-04-28T10:43:13;100970.44;;;14.73;100.00
63006;BME280;53704;52.532;6.426;2023-04-28T10:48:15;100964.19;;;14.73;100.00
63006;BME280;53704;52.532;6.426;2023-04-28T10:56:24;100970.25;;;14.90;100.00
63006;BME280;53704;52.532;6.426;2023-04-28T10:58:55;100971.16;;;15.12;100.00
63006;BME280;53704;52.532;6.426;2023-04-28T11:06:36;100970.25;;;14.75;100.00
63006;BME280;53704;52.532;6.426;2023-04-28T11:17:06;100958.06;;;14.56;100.00
63006;BME280;53704;52.532;6.426;2023-04-28T11:19:37;100960.13;;;14.54;100.00
63006;BME280;53704;52.532;6.426;2023-04-28T11:22:20;100956.59;;;14.83;100.00
63006;BME280;53704;52.532;6.426;2023-04-28T11:25:00;100962.13;;;14.60;100.00
63006;BME280;53704;52.532;6.426;2023-04-28T11:27:28;100955.66;;;14.91;100.00
63006;BME280;53704;52.532;6.426;2023-04-28T11:29:53;100952.50;;;14.72;100.00
63006;BME280;53704;52.532;6.426;2023-04-28T11:32:30;100958.16;;;14.33;100.00
63006;BME280;53704;52.532;6.426;2023-04-28T11:34:56;100955.91;;;14.51;100.00
63006;BME280;53704;52.532;6.426;2023-04-28T11:37:22;100949.63;;;14.74;100.00
63006;BME280;53704;52.532;6.426;2023-04-28T11:39:48;100955.38;;;14.41;100.00
63006;BME280;53704;52.532;6.426;2023-04-28T11:42:13;100948.00;;;14.79;100.00
63006;BME280;53704;52.532;6.426;2023-04-28T11:44:39;100951.91;;;14.77;100.00
63006;BME280;53704;52.532;6.426;2023-04-28T11:47:06;100953.28;;;14.58;100.00
63006;BME280;53704;52.532;6.426;2023-04-28T11:49:50;100954.25;;;14.50;100.00
63006;BME280;53704;52.532;6.426;2023-04-28T11:52:15;100955.34;;;14.11;100.00
63006;BME280;53704;52.532;6.426;2023-04-28T11:54:41;100956.22;;;14.71;100.00
63006;BME280;53704;52.532;6.426;2023-04-28T11:57:18;100958.06;;;14.56;100.00
63006;BME280;53704;52.532;6.426;2023-04-28T11:59:43;100959.97;;;14.70;100.00
63006;BME280;53704;52.532;6.426;2023-04-28T12:02:10;100958.31;;;14.69;100.00
63006;BME280;53704;52.532;6.426;2023-04-28T12:04:37;100953.63;;;14.63;100.00
63006;BME280;53704;52.532;6.426;2023-04-28T12:07:11;100959.69;;;14.65;100.00
63006;BME280;53704;52.532;6.426;2023-04-28T12:09:45;100949.19;;;14.77;100.00
63006;BME280;53704;52.532;6.426;2023-04-28T12:12:13;100956.78;;;14.52;100.00
63006;BME280;53704;52.532;6.426;2023-04-28T12:17:30;100957.78;;;14.51;100.00
63006;BME280;53704;52.532;6.426;2023-04-28T12:19:58;100957.22;;;14.40;100.00
63006;BME280;53704;52.532;6.426;2023-04-28T12:22:24;100954.16;;;14.58;100.00
63006;BME280;53704;52.532;6.426;2023-04-28T12:25:10;100953.34;;;14.73;100.00
63006;BME280;53704;52.532;6.426;2023-04-28T12:27:37;100964.13;;;14.58;100.00
63006;BME280;53704;52.532;6.426;2023-04-28T12:30:27;100954.28;;;14.65;100.00
63006;BME280;53704;52.532;6.426;2023-04-28T12:32:54;100960.91;;;14.62;100.00
63006;BME280;53704;52.532;6.426;2023-04-28T12:35:24;100971.63;;;14.56;100.00
63006;BME280;53704;52.532;6.426;2023-04-28T12:37:50;100969.38;;;14.59;100.00
63006;BME280;53704;52.532;6.426;2023-04-28T12:40:17;100958.25;;;14.39;100.00
63006;BME280;53704;52.532;6.426;2023-04-28T12:42:43;100954.59;;;14.32;100.00
63006;BME280;53704;52.532;6.426;2023-04-28T12:45:08;100957.97;;;14.49;100.00
63006;BME280;53704;52.532;6.426;2023-04-28T12:47:35;100955.91;;;14.51;100.00
63006;BME280;53704;52.532;6.426;2023-04-28T12:50:01;100943.88;;;14.24;100.00
63006;BME280;53704;52.532;6.426;2023-04-28T12:52:27;100943.78;;;14.47;100.00
63006;BME280;53704;52.532;6.426;2023-04-28T12:54:52;100947.22;;;14.56;100.00
63006;BME280;53704;52.532;6.426;2023-04-28T12:57:18;100948.06;;;14.41;100.00
63006;BME280;53704;52.532;6.426;2023-04-28T12:59:45;100944.38;;;14.72;100.00
63006;BME280;53704;52.532;6.426;2023-04-28T13:02:12;100942.13;;;14.61;100.00
63006;BME280;53704;52.532;6.426;2023-04-28T13:04:39;100945.25;;;14.05;100.00
63006;BME280;53704;52.532;6.426;2023-04-28T13:07:07;100933.31;;;14.14;100.00
63006;BME280;53704;52.532;6.426;2023-04-28T13:09:36;100941.53;;;14.21;100.00
63006;BME280;53704;52.532;6.426;2023-04-28T13:12:02;100932.59;;;14.50;100.00
63006;BME280;53704;52.532;6.426;2023-04-28T13:14:30;100925.03;;;14.45;100.00
63006;BME280;53704;52.532;6.426;2023-04-28T13:16:56;100914.84;;;14.62;100.00
63006;BME280;53704;52.532;6.426;2023-04-28T13:19:22;100922.59;;;14.51;100.00